Time;durP1;ratioP1;P1;durP2;ratioP2;P2;SDS_P1;SDS_P2;PMS_P1;PMS_P2;Temp;Humidity;BMP_temperature;BMP_pressure;BME280_temperature;BME280_humidity;BME280_pressure;Samples;Min_cycle;Max_cycle;Signal;HPM_P1;HPM_P2
2023/04/06 00:00:22;;;;;;;1.60;1.50;;;;;;;3.57;44.94;99750.13;4397855;32;32984;-84
2023/04/06 00:02:51;;;;;;;1.70;1.60;;;;;;;3.47;45.58;99753.38;4419172;32;33943;-83
2023/04/06 00:05:22;;;;;;;1.83;1.73;;;;;;;3.42;45.80;99748.16;4416553;32;33513;-82
2023/04/06 00:07:54;;;;;;;1.80;1.70;;;;;;;3.50;46.24;99746.59;4398026;32;33663;-84
2023/04/06 00:10:22;;;;;;;1.73;1.62;;;;;;;3.50;46.48;99746.59;4409915;32;33370;-83
2023/04/06 00:12:51;;;;;;;1.95;1.85;;;;;;;3.41;46.97;99747.31;4407714;32;33652;-85
2023/04/06 00:15:20;;;;;;;1.98;1.62;;;;;;;3.47;47.07;99748.25;4418496;32;33347;-82
2023/04/06 00:17:49;;;;;;;1.83;1.70;;;;;;;3.30;47.46;99746.25;4408528;32;33947;-81
2023/04/06 00:20:21;;;;;;;1.80;1.70;;;;;;;3.44;47.15;99745.66;4414732;32;33253;-79
2023/04/06 00:22:50;;;;;;;1.87;1.77;;;;;;;3.37;46.76;99747.25;4413483;32;33325;-84
2023/04/06 00:25:20;;;;;;;2.25;2.15;;;;;;;3.34;46.61;99745.50;4418459;32;33767;-81
2023/04/06 00:27:50;;;;;;;1.70;1.60;;;;;;;3.28;46.84;99747.94;4415793;32;34641;-84
2023/04/06 00:30:19;;;;;;;1.50;1.40;;;;;;;3.08;47.07;99739.03;4413944;32;34132;-82
2023/04/06 00:32:48;;;;;;;1.50;1.40;;;;;;;2.86;47.35;99738.66;4412431;32;33066;-81
2023/04/06 00:35:17;;;;;;;1.73;1.62;;;;;;;2.97;46.97;99744.84;4408099;32;34807;-81
2023/04/06 00:37:47;;;;;;;1.50;1.40;;;;;;;3.12;46.57;99726.31;4419742;32;33758;-79
2023/04/06 00:40:16;;;;;;;1.60;1.50;;;;;;;3.06;46.48;99725.34;4413996;32;33387;-84
2023/04/06 00:42:47;;;;;;;2.78;1.75;;;;;;;3.00;46.54;99726.09;4412224;32;33442;-79
2023/04/06 00:45:16;;;;;;;1.95;1.85;;;;;;;2.94;46.66;99721.72;4412852;32;33594;-81
2023/04/06 00:47:45;;;;;;;1.60;1.50;;;;;;;3.03;46.45;99720.16;4419633;32;34043;-82
2023/04/06 00:50:14;;;;;;;1.87;1.77;;;;;;;2.99;46.59;99722.66;4413482;32;33430;-81
2023/04/06 00:52:43;;;;;;;1.70;1.60;;;;;;;3.13;46.48;99717.78;4413116;32;33388;-84
2023/04/06 00:55:12;;;;;;;1.98;1.87;;;;;;;2.96;46.83;99714.91;4410219;32;33852;-83
2023/04/06 00:57:41;;;;;;;1.73;1.62;;;;;;;2.94;46.88;99718.28;4412793;32;33670;-83
2023/04/06 01:00:13;;;;;;;1.60;1.50;;;;;;;2.79;47.30;99724.00;4419078;32;33852;-81
2023/04/06 01:02:44;;;;;;;1.92;1.83;;;;;;;2.83;47.22;99718.09;4412134;32;34207;-81
2023/04/06 01:05:14;;;;;;;;;;;;;;;2.81;47.24;99716.34;4412058;32;33522;-81
2023/04/06 01:07:46;;;;;;;1.70;1.60;;;;;;;2.97;47.00;99720.91;4413008;32;34629;-82
2023/04/06 01:10:23;;;;;;;1.83;1.73;;;;;;;2.75;47.39;99723.09;4413338;32;33781;-81
2023/04/06 01:12:53;;;;;;;1.70;1.60;;;;;;;2.73;47.70;99722.19;4418229;32;33001;-83
2023/04/06 01:15:25;;;;;;;2.45;2.25;;;;;;;2.75;47.51;99724.78;4413458;32;33822;-81
2023/04/06 01:17:54;;;;;;;2.08;1.98;;;;;;;2.67;47.56;99721.22;4414699;32;33148;-81
2023/04/06 01:20:24;;;;;;;1.60;1.50;;;;;;;2.75;47.57;99725.66;4412853;32;33382;-80
2023/04/06 01:22:54;;;;;;;1.77;1.67;;;;;;;2.70;47.37;99727.25;4408363;32;33196;-81
2023/04/06 01:25:23;;;;;;;2.10;1.90;;;;;;;2.69;47.38;99727.22;4413162;32;32910;-82
2023/04/06 01:27:53;;;;;;;1.87;1.77;;;;;;;2.61;47.61;99724.53;4411664;32;33749;-83
2023/04/06 01:30:22;;;;;;;1.77;1.67;;;;;;;2.80;46.99;99730.84;4412960;32;33086;-80
2023/04/06 01:32:51;;;;;;;3.20;2.83;;;;;;;2.65;47.08;99722.88;4414590;32;33033;-80
2023/04/06 01:35:21;;;;;;;1.67;1.58;;;;;;;2.62;47.42;99733.06;4410960;32;32929;-80
2023/04/06 01:37:51;;;;;;;1.85;1.75;;;;;;;2.62;47.20;99728.81;4399712;32;33560;-82
2023/04/06 01:40:23;;;;;;;2.40;2.20;;;;;;;2.51;47.26;99723.50;4408472;32;33605;-80
2023/04/06 01:42:52;;;;;;;1.80;1.70;;;;;;;2.49;47.77;99726.81;4402357;32;32472;-81
2023/04/06 01:45:22;;;;;;;1.85;1.75;;;;;;;2.53;47.64;99726.06;4418713;32;33697;-80
2023/04/06 01:47:51;;;;;;;1.62;1.52;;;;;;;2.48;48.02;99722.53;4412832;32;35171;-79
2023/04/06 01:50:23;;;;;;;1.85;1.75;;;;;;;2.48;47.68;99718.28;4414017;32;35525;-80
2023/04/06 01:52:52;;;;;;;1.95;1.85;;;;;;;2.44;47.59;99719.06;4412747;32;33377;-78
2023/04/06 01:55:25;;;;;;;1.80;1.70;;;;;;;2.48;47.53;99718.28;4419186;32;33037;-79
2023/04/06 01:57:56;;;;;;;2.00;1.90;;;;;;;2.55;47.52;99711.59;4416205;32;32791;-79
2023/04/06 02:00:30;;;;;;;1.80;1.70;;;;;;;2.53;47.33;99716.66;4413550;32;33735;-82
2023/04/06 02:02:59;;;;;;;1.77;1.67;;;;;;;2.50;47.35;99719.19;4400849;32;31543;-81
2023/04/06 02:05:30;;;;;;;1.73;1.62;;;;;;;2.48;47.75;99717.41;4413491;32;33930;-81
2023/04/06 02:07:59;;;;;;;1.70;1.60;;;;;;;2.54;47.33;99710.72;4419301;32;34225;-83
2023/04/06 02:10:30;;;;;;;1.80;1.70;;;;;;;2.44;47.67;99703.72;4412644;32;34132;-81
2023/04/06 02:13:00;;;;;;;1.98;1.87;;;;;;;2.54;47.51;99700.50;4413097;32;33062;-81
2023/04/06 02:15:29;;;;;;;3.05;2.85;;;;;;;2.53;47.48;99703.87;4411395;32;33581;-80
2023/04/06 02:18:00;;;;;;;1.92;1.80;;;;;;;2.38;47.86;99700.16;4415471;32;33566;-81
2023/04/06 02:20:29;;;;;;;1.87;1.77;;;;;;;2.38;48.08;99702.72;4419702;32;34270;-81
2023/04/06 02:22:59;;;;;;;1.75;1.65;;;;;;;2.47;48.01;99698.66;4411748;32;33320;-83
2023/04/06 02:25:30;;;;;;;2.53;2.33;;;;;;;2.44;48.12;99697.69;4415616;32;32677;-81
2023/04/06 02:27:58;;;;;;;2.05;1.90;;;;;;;2.52;47.74;99685.94;4412201;32;33744;-81
2023/04/06 02:30:32;;;;;;;1.95;1.85;;;;;;;2.52;47.96;99689.34;4418028;32;33882;-83
2023/04/06 02:33:01;;;;;;;1.70;1.60;;;;;;;2.51;47.88;99687.63;4412110;32;32589;-81
2023/04/06 02:35:31;;;;;;;1.60;1.50;;;;;;;2.35;48.15;99694.13;4413361;32;34315;-82
2023/04/06 02:38:00;;;;;;;1.60;1.50;;;;;;;2.24;48.52;99687.06;4412689;32;32657;-83
2023/04/06 02:40:31;;;;;;;1.70;1.60;;;;;;;2.37;48.43;99683.06;4416055;32;33737;-80
2023/04/06 02:43:02;;;;;;;2.10;2.00;;;;;;;2.48;47.85;99682.44;4419913;32;33700;-82
2023/04/06 02:45:31;;;;;;;1.77;1.67;;;;;;;2.22;48.80;99678.50;4413728;32;33340;-79
2023/04/06 02:48:00;;;;;;;2.55;2.28;;;;;;;2.54;47.87;99680.00;4414684;32;33956;-82
2023/04/06 02:50:34;;;;;;;1.60;1.50;;;;;;;2.27;48.51;99676.88;4415179;32;33475;-81
2023/04/06 02:53:03;;;;;;;1.75;1.65;;;;;;;2.47;47.93;99678.16;4420057;32;33678;-81
2023/04/06 02:55:34;;;;;;;2.05;1.95;;;;;;;2.44;48.00;99679.78;4416028;32;33640;-83
2023/04/06 02:58:03;;;;;;;1.70;1.60;;;;;;;2.63;47.42;99681.84;4413858;32;34000;-81
2023/04/06 03:00:33;;;;;;;2.10;1.90;;;;;;;2.45;47.80;99681.53;4413694;32;34347;-81
2023/04/06 03:03:01;;;;;;;1.60;1.50;;;;;;;2.21;48.20;99680.19;4416024;32;33233;-83
2023/04/06 03:05:30;;;;;;;2.55;2.35;;;;;;;2.39;48.23;99677.12;4419734;32;34624;-80
2023/04/06 03:07:59;;;;;;;2.55;2.35;;;;;;;2.32;48.30;99677.84;4415312;32;33910;-81
2023/04/06 03:10:29;;;;;;;1.80;1.70;;;;;;;2.28;48.48;99676.06;4413822;32;34222;-81
2023/04/06 03:12:59;;;;;;;2.00;1.90;;;;;;;2.36;47.87;99671.97;4413373;32;33038;-81
2023/04/06 03:15:28;;;;;;;1.80;1.70;;;;;;;2.42;48.01;99674.66;4417763;32;33706;-81
2023/04/06 03:17:58;;;;;;;1.90;1.80;;;;;;;2.35;48.16;99680.47;4415517;32;33714;-79
2023/04/06 03:20:29;;;;;;;2.55;1.95;;;;;;;2.30;48.45;99679.53;4415910;32;33670;-78
2023/04/06 03:22:58;;;;;;;1.80;1.70;;;;;;;2.30;48.43;99680.37;4415903;32;32949;-82
2023/04/06 03:25:27;;;;;;;1.83;1.73;;;;;;;2.28;48.59;99676.06;4419762;32;34456;-79
2023/04/06 03:28:00;;;;;;;1.70;1.60;;;;;;;2.25;48.78;99681.16;4420208;32;35644;-77
2023/04/06 03:30:30;;;;;;;1.90;1.80;;;;;;;2.16;48.88;99678.38;4413938;32;33711;-78
2023/04/06 03:32:59;;;;;;;1.70;1.60;;;;;;;2.17;48.79;99677.53;4415732;32;33812;-79
2023/04/06 03:35:32;;;;;;;1.80;1.70;;;;;;;2.14;49.02;99678.34;4412802;32;33430;-78
2023/04/06 03:38:01;;;;;;;1.92;1.83;;;;;;;2.06;49.50;99675.63;4419228;32;34617;-78
2023/04/06 03:40:30;;;;;;;1.77;1.67;;;;;;;2.17;49.32;99677.53;4413531;32;34421;-78
2023/04/06 03:42:59;;;;;;;2.62;2.40;;;;;;;2.02;49.65;99678.94;4414218;32;33964;-80
2023/04/06 03:45:30;;;;;;;2.12;1.92;;;;;;;2.25;48.78;99681.16;4414153;32;33355;-78
2023/04/06 03:47:59;;;;;;;1.60;1.50;;;;;;;2.12;49.10;99680.00;4415656;32;35033;-81
2023/04/06 03:50:28;;;;;;;2.05;1.95;;;;;;;2.13;49.02;99681.75;4420197;32;33947;-80
2023/04/06 03:52:57;;;;;;;1.75;1.65;;;;;;;2.10;49.19;99682.56;4413997;32;34107;-77
2023/04/06 03:55:25;;;;;;;1.70;1.60;;;;;;;2.20;49.01;99677.59;4400318;32;33895;-78
2023/04/06 03:57:55;;;;;;;2.20;2.05;;;;;;;2.20;48.94;99686.16;4411412;32;34124;-81
2023/04/06 04:00:25;;;;;;;1.80;1.70;;;;;;;2.13;48.82;99681.75;4419010;32;33330;-78
2023/04/06 04:02:57;;;;;;;2.03;1.92;;;;;;;1.92;49.17;99677.91;4412412;32;32676;-77
2023/04/06 04:05:26;;;;;;;2.30;2.10;;;;;;;1.94;49.21;99674.53;4414098;32;32265;-77
2023/04/06 04:07:56;;;;;;;1.70;1.60;;;;;;;1.99;49.11;99673.78;4415006;32;33551;-78
2023/04/06 04:10:25;;;;;;;1.70;1.60;;;;;;;2.23;48.69;99677.69;4417139;32;34552;-80
2023/04/06 04:12:54;;;;;;;1.90;1.80;;;;;;;2.12;48.80;99673.19;4414902;32;33615;-76
2023/04/06 04:15:23;;;;;;;2.03;1.92;;;;;;;2.04;48.95;99669.62;4413660;32;33765;-77
2023/04/06 04:17:51;;;;;;;1.70;1.60;;;;;;;1.81;49.65;99668.25;4414480;32;33769;-78
2023/04/06 04:20:21;;;;;;;2.35;2.17;;;;;;;1.91;49.41;99670.22;4413059;32;33110;-78
2023/04/06 04:22:50;;;;;;;1.95;1.85;;;;;;;1.93;49.41;99676.19;4418674;32;33332;-79
2023/04/06 04:25:19;;;;;;;2.28;2.17;;;;;;;1.77;49.87;99663.94;4403834;32;33396;-81
2023/04/06 04:27:49;;;;;;;2.53;2.33;;;;;;;1.80;49.98;99675.06;4414494;32;34645;-78
2023/04/06 04:30:19;;;;;;;1.90;1.80;;;;;;;1.77;49.96;99669.03;4413343;32;33919;-81
2023/04/06 04:32:48;;;;;;;1.70;1.60;;;;;;;1.96;49.37;99671.16;4418508;32;33342;-77
2023/04/06 04:35:18;;;;;;;2.55;2.35;;;;;;;1.90;49.79;99674.44;4414110;32;35329;-78
2023/04/06 04:37:49;;;;;;;2.28;2.08;;;;;;;1.86;49.89;99671.78;4415149;32;33476;-80
2023/04/06 04:40:18;;;;;;;2.25;2.05;;;;;;;2.08;49.41;99665.44;4412629;32;32968;-78
2023/04/06 04:42:47;;;;;;;2.35;2.15;;;;;;;1.99;49.58;99673.78;4414121;32;32970;-76
2023/04/06 04:45:16;;;;;;;1.87;1.77;;;;;;;2.07;49.34;99671.38;4418313;32;34179;-78
2023/04/06 04:47:45;;;;;;;1.83;1.73;;;;;;;1.98;48.91;99672.06;4410714;32;33816;-81
2023/04/06 04:50:15;;;;;;;1.70;1.60;;;;;;;2.05;49.03;99667.91;4411546;32;31817;-80
2023/04/06 04:52:44;;;;;;;2.65;2.45;;;;;;;2.01;49.33;99661.88;4411593;32;33426;-82
2023/04/06 04:55:16;;;;;;;2.58;2.37;;;;;;;1.82;49.88;99665.75;4419203;32;33611;-78
2023/04/06 04:57:46;;;;;;;2.15;1.95;;;;;;;1.99;49.10;99655.00;4413930;32;34131;-77
2023/04/06 05:00:15;;;;;;;2.22;2.12;;;;;;;1.76;50.03;99650.25;4412013;32;34411;-78
2023/04/06 05:02:45;;;;;;;2.37;2.20;;;;;;;1.76;50.40;99650.25;4412883;32;32622;-80
2023/04/06 05:05:14;;;;;;;2.33;2.17;;;;;;;1.78;50.29;99648.59;4414279;32;33526;-81
2023/04/06 05:07:45;;;;;;;1.90;1.80;;;;;;;1.80;50.34;99648.63;4419478;32;33691;-77
2023/04/06 05:10:16;;;;;;;1.80;1.70;;;;;;;1.88;48.93;99647.09;4411486;32;33498;-79
2023/04/06 05:12:49;;;;;;;1.80;1.70;;;;;;;1.67;48.85;99645.81;4410959;32;34329;-78
2023/04/06 05:15:19;;;;;;;1.90;1.80;;;;;;;1.30;49.76;99641.56;4414312;32;33619;-82
2023/04/06 05:17:48;;;;;;;2.80;2.60;;;;;;;1.00;50.57;99644.25;4416918;32;34033;-80
2023/04/06 05:20:18;;;;;;;1.67;1.58;;;;;;;1.03;50.78;99645.19;4412916;32;34064;-78
2023/04/06 05:22:48;;;;;;;2.00;1.90;;;;;;;1.02;50.54;99642.63;4410728;32;33692;-80
2023/04/06 05:25:18;;;;;;;2.80;2.60;;;;;;;1.08;50.59;99644.44;4412945;32;34336;-79
2023/04/06 05:27:48;;;;;;;2.72;2.53;;;;;;;1.30;50.12;99635.59;4412517;32;35531;-79
2023/04/06 05:30:18;;;;;;;2.17;2.08;;;;;;;1.29;49.98;99627.06;4417680;32;34240;-77
2023/04/06 05:32:47;;;;;;;2.10;2.00;;;;;;;1.26;50.18;99627.00;4411527;32;33314;-79
2023/04/06 05:35:17;;;;;;;2.15;2.05;;;;;;;1.29;49.80;99624.50;4407275;32;33098;-80
2023/04/06 05:37:47;;;;;;;1.80;1.70;;;;;;;1.14;50.27;99626.72;4412972;32;34114;-80
2023/04/06 05:40:18;;;;;;;1.80;1.70;;;;;;;1.41;50.31;99623.94;4409856;32;34723;-80
2023/04/06 05:42:47;;;;;;;2.87;2.40;;;;;;;1.23;50.36;99625.25;4412086;32;33087;-81
2023/04/06 05:45:18;;;;;;;3.72;2.25;;;;;;;1.20;50.46;99627.72;4412449;32;33560;-80
2023/04/06 05:47:48;;;;;;;2.92;2.72;;;;;;;0.99;50.89;99624.62;4413869;32;33628;-79
2023/04/06 05:50:18;;;;;;;2.60;2.37;;;;;;;1.43;50.34;99617.16;4412436;32;34936;-79
2023/04/06 05:52:47;;;;;;;2.33;2.12;;;;;;;1.13;51.42;99622.41;4419332;32;33266;-79
2023/04/06 05:55:17;;;;;;;1.98;1.87;;;;;;;1.48;50.58;99616.44;4413945;32;34093;-81
2023/04/06 05:57:49;;;;;;;;;;;;;;;1.38;50.47;99621.31;4413049;32;33761;-80
2023/04/06 06:00:19;;;;;;;1.85;1.75;;;;;;;1.28;50.79;99610.00;4410683;32;33658;-77
2023/04/06 06:02:48;;;;;;;2.90;2.70;;;;;;;1.33;50.43;99615.22;4418285;32;33707;-78
2023/04/06 06:05:18;;;;;;;1.80;1.70;;;;;;;1.41;50.36;99608.59;4414730;32;33698;-79
2023/04/06 06:07:47;;;;;;;1.92;1.83;;;;;;;1.51;49.74;99610.50;4411675;32;33098;-79
2023/04/06 06:10:18;;;;;;;2.58;2.37;;;;;;;1.65;49.81;99605.72;4411178;32;34175;-81
2023/04/06 06:12:46;;;;;;;2.95;2.72;;;;;;;1.77;49.46;99603.41;4410944;32;33357;-78
2023/04/06 06:15:16;;;;;;;2.40;2.25;;;;;;;1.60;49.05;99607.31;4415798;32;33254;-79
2023/04/06 06:17:45;;;;;;;1.92;1.83;;;;;;;1.71;49.39;99608.38;4410909;32;33704;-79
2023/04/06 06:20:14;;;;;;;2.25;2.15;;;;;;;1.65;49.10;99606.56;4409553;32;33628;-81
2023/04/06 06:22:44;;;;;;;3.22;2.58;;;;;;;1.92;48.36;99605.41;4411986;32;33861;-84
2023/04/06 06:25:14;;;;;;;2.70;2.50;;;;;;;1.83;48.48;99608.62;4419942;32;34614;-80
2023/04/06 06:27:44;;;;;;;2.20;1.98;;;;;;;1.89;48.08;99605.34;4412557;32;33809;-83
2023/04/06 06:30:15;;;;;;;1.80;1.70;;;;;;;1.77;48.14;99600.84;4410353;32;34119;-81
2023/04/06 06:32:44;;;;;;;2.33;2.15;;;;;;;2.09;48.03;99600.62;4407005;32;166328;-79
2023/04/06 06:35:13;;;;;;;2.40;2.20;;;;;;;2.07;47.97;99602.28;4412410;32;34339;-79
2023/04/06 06:37:42;;;;;;;1.87;1.77;;;;;;;2.33;47.61;99595.09;4414850;32;33659;-82
2023/04/06 06:40:12;;;;;;;3.65;3.35;;;;;;;2.61;46.52;99587.91;4412372;32;33736;-79
2023/04/06 06:42:44;;;;;;;2.17;2.03;;;;;;;2.80;46.43;99594.19;4411731;32;33700;-79
2023/04/06 06:45:17;;;;;;;2.28;2.15;;;;;;;3.09;45.67;99594.66;4410795;32;33638;-81
2023/04/06 06:47:46;;;;;;;2.70;2.50;;;;;;;2.87;45.13;99586.62;4417399;32;34528;-82
2023/04/06 06:50:16;;;;;;;1.80;1.70;;;;;;;2.87;44.85;99589.19;4410577;32;34226;-81
2023/04/06 06:52:46;;;;;;;7.95;2.53;;;;;;;2.99;44.68;99586.81;4405468;32;33803;-80
2023/04/06 06:55:15;;;;;;;1.98;1.87;;;;;;;3.19;44.77;99583.75;4412825;32;33419;-81
2023/04/06 06:57:46;;;;;;;2.42;2.22;;;;;;;3.50;43.43;99582.44;4401449;32;34051;-80
2023/04/06 07:00:16;;;;;;;2.37;2.17;;;;;;;3.45;43.75;99578.94;4399942;32;32016;-81
2023/04/06 07:02:45;;;;;;;2.65;2.45;;;;;;;3.36;43.99;99576.28;4403244;32;34711;-80
2023/04/06 07:05:14;;;;;;;1.80;1.70;;;;;;;3.46;43.76;99574.72;4395493;32;34033;-80
2023/04/06 07:07:56;;;;;;;1.83;1.73;;;;;;;3.45;44.21;99571.25;4403077;32;34413;-82
2023/04/06 07:10:26;;;;;;;2.30;2.10;;;;;;;3.85;43.24;99577.78;4418436;32;34077;-81
2023/04/06 07:12:57;;;;;;;1.70;1.60;;;;;;;3.64;43.06;99573.22;4412173;32;33766;-81
2023/04/06 07:15:25;;;;;;;1.70;1.60;;;;;;;3.94;42.86;99574.47;4411924;32;32714;-80
2023/04/06 07:17:55;;;;;;;1.87;1.77;;;;;;;4.03;42.51;99568.56;4411586;32;33644;-83
2023/04/06 07:20:24;;;;;;;1.60;1.50;;;;;;;4.21;42.17;99571.34;4412845;32;33646;-83
2023/04/06 07:22:54;;;;;;;1.95;1.85;;;;;;;3.96;41.86;99564.19;4416330;32;33815;-83
2023/04/06 07:25:22;;;;;;;1.50;1.40;;;;;;;3.80;42.12;99574.28;4410689;32;34835;-81
2023/04/06 07:27:53;;;;;;;1.85;1.75;;;;;;;3.86;42.69;99568.34;4413381;32;33623;-82
2023/04/06 07:30:26;;;;;;;1.48;1.37;;;;;;;3.80;42.60;99564.03;4414524;32;33150;-84
2023/04/06 07:32:55;;;;;;;2.12;1.92;;;;;;;4.27;41.37;99566.25;4418976;32;33037;-81
2023/04/06 07:35:25;;;;;;;2.30;2.10;;;;;;;4.40;41.35;99564.69;4400653;32;33581;-81
2023/04/06 07:37:57;;;;;;;2.37;2.17;;;;;;;4.44;40.77;99563.84;4402342;32;33566;-83
2023/04/06 07:40:26;;;;;;;2.12;1.98;;;;;;;4.53;40.77;99564.78;4404099;32;32939;-81
2023/04/06 07:42:56;;;;;;;1.83;1.67;;;;;;;4.33;41.11;99560.31;4409733;32;34395;-81
2023/04/06 07:45:27;;;;;;;1.65;1.55;;;;;;;4.40;40.80;99550.97;4416900;32;34209;-84
2023/04/06 07:47:56;;;;;;;1.65;1.55;;;;;;;4.42;41.15;99554.41;4409151;32;33815;-83
2023/04/06 07:50:25;;;;;;;1.90;1.52;;;;;;;4.47;40.09;99561.31;4414635;32;33769;-80
2023/04/06 07:52:54;;;;;;;1.50;1.40;;;;;;;4.58;40.44;99553.69;4415389;32;33097;-81
2023/04/06 07:55:23;;;;;;;1.30;1.20;;;;;;;4.63;40.43;99557.16;4413137;32;34197;-83
2023/04/06 07:57:52;;;;;;;2.42;1.52;;;;;;;4.92;39.58;99559.13;4414594;32;34124;-83
2023/04/06 08:00:21;;;;;;;1.50;1.40;;;;;;;5.16;39.69;99562.72;4415377;32;34107;-82
2023/04/06 08:02:52;;;;;;;1.55;1.45;;;;;;;5.03;39.37;99549.78;4401438;32;33330;-84
2023/04/06 08:05:21;;;;;;;1.83;1.73;;;;;;;5.11;39.44;99555.81;4414767;32;33308;-84
2023/04/06 08:07:49;;;;;;;2.30;2.10;;;;;;;5.32;38.99;99556.81;4417526;32;33041;-84
2023/04/06 08:10:19;;;;;;;1.50;1.40;;;;;;;5.06;39.59;99552.37;4404515;32;33251;-81
2023/04/06 08:12:47;;;;;;;4.07;3.72;;;;;;;5.14;39.32;99544.69;4405561;32;33345;-82
2023/04/06 08:15:17;;;;;;;1.20;1.20;;;;;;;4.89;39.45;99552.25;4402806;32;33443;-83
2023/04/06 08:17:49;;;;;;;1.55;1.45;;;;;;;5.09;39.28;99551.53;4415507;32;34734;-84
2023/04/06 08:20:19;;;;;;;1.90;1.80;;;;;;;5.17;39.06;99552.44;4412651;32;33669;-82
2023/04/06 08:22:48;;;;;;;2.80;2.58;;;;;;;5.27;39.20;99548.22;4411349;32;32423;-83
2023/04/06 08:25:20;;;;;;;1.60;1.50;;;;;;;5.07;39.41;99545.50;4407426;32;33789;-82
2023/04/06 08:27:49;;;;;;;1.50;1.40;;;;;;;5.17;39.24;99546.41;4413116;32;34243;-86
2023/04/06 08:30:19;;;;;;;2.75;1.90;;;;;;;5.09;39.50;99544.66;4417444;32;33771;-85
2023/04/06 08:32:47;;;;;;;1.30;1.30;;;;;;;5.25;39.59;99548.19;4411711;32;32952;-83
2023/04/06 08:35:16;;;;;;;2.12;1.92;;;;;;;5.55;39.05;99531.19;4405166;32;33483;-85
2023/04/06 08:37:47;;;;;;;1.55;1.45;;;;;;;5.39;38.47;99542.25;4412347;32;34166;-82
2023/04/06 08:40:16;;;;;;;1.50;1.40;;;;;;;5.77;38.05;99535.59;4416349;32;33780;-86
2023/04/06 08:42:51;;;;;;;2.78;2.05;;;;;;;5.63;38.61;99529.53;4411483;32;33088;-83
2023/04/06 08:45:21;;;;;;;1.12;1.12;;;;;;;5.65;38.74;99539.81;4413091;32;34078;-85
2023/04/06 08:47:51;;;;;;;3.30;2.35;;;;;;;5.83;38.22;99519.31;4404503;32;34671;-86
2023/04/06 08:50:20;;;;;;;2.90;2.20;;;;;;;5.94;37.75;99515.09;4411545;32;34073;-85
2023/04/06 08:52:51;;;;;;;2.03;1.73;;;;;;;6.09;37.44;99513.37;4417553;32;32559;-83
2023/04/06 08:55:19;;;;;;;1.50;1.40;;;;;;;6.05;37.45;99514.25;4413305;32;32542;-85
2023/04/06 08:57:48;;;;;;;1.83;1.73;;;;;;;6.00;37.84;99505.66;4410459;32;34009;-83
2023/04/06 09:00:18;;;;;;;1.20;1.20;;;;;;;6.18;37.47;99515.97;4411459;32;33604;-87
2023/04/06 09:02:47;;;;;;;1.42;1.33;;;;;;;6.47;37.56;99508.28;4417200;32;32979;-85
2023/04/06 09:05:16;;;;;;;1.45;1.35;;;;;;;6.66;36.64;99509.16;4411543;32;32984;-85
2023/04/06 09:07:46;;;;;;;1.52;1.42;;;;;;;6.82;36.63;99504.84;4410696;32;33538;-85
2023/04/06 09:10:17;;;;;;;1.20;1.20;;;;;;;6.54;36.59;99501.41;4406827;32;33510;-85
2023/04/06 09:12:46;;;;;;;1.10;1.10;;;;;;;6.80;36.52;99498.84;4413389;32;33386;-88
2023/04/06 09:15:20;;;;;;;1.10;1.10;;;;;;;7.00;35.92;99503.97;4410465;32;34614;-84
2023/04/06 09:17:55;;;;;;;1.42;1.33;;;;;;;6.61;35.97;99491.09;4408800;32;34216;-85
2023/04/06 09:20:25;;;;;;;2.47;1.30;;;;;;;6.89;36.38;99491.09;4407465;32;33430;-87
2023/04/06 09:22:55;;;;;;;1.12;1.12;;;;;;;6.76;35.14;99482.50;4400530;32;34097;-86
2023/04/06 09:25:26;;;;;;;1.40;1.30;;;;;;;7.07;35.16;99484.19;4411269;32;34306;-85
2023/04/06 09:28:03;;;;;;;1.50;1.40;;;;;;;7.27;34.99;99492.72;4412185;32;34359;-88
2023/04/06 09:30:32;;;;;;;1.48;1.37;;;;;;;7.32;33.72;99484.97;4399597;32;33985;-88
2023/04/06 09:33:00;;;;;;;1.55;1.45;;;;;;;6.91;33.72;99494.53;4403273;32;33159;-89
2023/04/06 09:35:31;;;;;;;1.00;1.00;;;;;;;6.95;33.76;99477.31;4399830;32;33481;-86
2023/04/06 09:37:59;;;;;;;1.10;1.10;;;;;;;7.12;33.49;99478.13;4405185;32;34005;-85
2023/04/06 09:40:30;;;;;;;2.28;2.08;;;;;;;7.10;33.85;99474.69;4401715;32;33525;-85
2023/04/06 09:42:59;;;;;;;1.50;1.40;;;;;;;7.10;34.00;99472.12;4415071;32;34858;-85
2023/04/06 09:45:30;;;;;;;1.10;1.10;;;;;;;7.31;33.61;99467.78;4410119;32;34634;-85
2023/04/06 09:47:59;;;;;;;;;;;;;;;7.45;33.53;99458.25;4405496;32;34239;-85
2023/04/06 09:50:28;;;;;;;1.52;1.42;;;;;;;7.54;32.52;99449.59;4399128;32;33844;-88
2023/04/06 09:52:59;;;;;;;1.30;1.20;;;;;;;7.65;32.05;99456.41;4400025;32;33178;-87
2023/04/06 09:55:36;;;;;;;1.48;1.37;;;;;;;7.62;31.97;99464.19;4408346;32;33877;-89
2023/04/06 09:58:06;;;;;;;1.10;1.05;;;;;;;7.51;32.03;99458.22;4405044;32;33265;-86
2023/04/06 10:00:48;;;;;;;1.48;1.37;;;;;;;7.11;32.87;99460.94;4414280;32;33443;-88
2023/04/06 10:03:28;;;;;;;1.98;1.80;;;;;;;7.50;33.15;99461.66;4400226;32;33840;-85
2023/04/06 10:05:59;;;;;;;1.40;1.30;;;;;;;7.82;32.00;99458.91;4419905;32;33301;-85
2023/04/06 10:08:28;;;;;;;1.00;1.00;;;;;;;7.82;31.52;99461.50;4430169;32;34661;-85
2023/04/06 10:11:02;;;;;;;1.42;1.20;;;;;;;7.75;30.71;99459.81;4431106;32;33268;-84
2023/04/06 10:13:31;;;;;;;1.67;1.45;;;;;;;7.73;31.27;99448.62;4435616;32;34028;-84
2023/04/06 10:16:01;;;;;;;1.15;1.15;;;;;;;8.03;31.28;99451.91;4417763;32;34350;-86
2023/04/06 10:18:30;;;;;;;1.27;1.17;;;;;;;8.31;31.73;99450.84;4414958;32;34564;-85
2023/04/06 10:21:03;;;;;;;1.58;1.48;;;;;;;8.31;29.91;99445.69;4413838;32;34165;-87
2023/04/06 10:23:34;;;;;;;1.02;1.02;;;;;;;8.05;30.12;99451.03;4414796;32;33710;-85
2023/04/06 10:26:05;;;;;;;1.77;1.67;;;;;;;8.28;30.05;99448.25;4419640;32;34624;-85
2023/04/06 10:28:36;;;;;;;0.90;0.90;;;;;;;7.96;29.79;99445.91;4412232;32;34341;-87
2023/04/06 10:31:06;;;;;;;2.42;1.90;;;;;;;8.29;29.59;99433.62;4414358;32;33608;-87
2023/04/06 10:33:35;;;;;;;0.90;0.90;;;;;;;8.34;29.47;99429.28;4411178;32;33911;-88
2023/04/06 10:36:11;;;;;;;1.25;1.25;;;;;;;8.44;29.71;99430.09;4419663;32;33055;-87
2023/04/06 10:38:41;;;;;;;1.05;1.02;;;;;;;8.41;30.49;99428.41;4413700;32;33507;-85
2023/04/06 10:41:12;;;;;;;1.52;1.42;;;;;;;8.45;29.83;99429.22;4409727;32;33683;-86
2023/04/06 10:43:42;;;;;;;0.90;0.90;;;;;;;8.61;29.46;99437.72;4410975;32;33224;-86
2023/04/06 10:46:11;;;;;;;2.15;1.20;;;;;;;9.01;29.10;99427.78;4405071;32;34230;-85
2023/04/06 10:48:41;;;;;;;1.20;1.10;;;;;;;8.74;29.43;99418.59;4413913;32;33773;-89
2023/04/06 10:51:12;;;;;;;2.97;2.67;;;;;;;8.90;29.32;99421.91;4409914;32;33620;-88
2023/04/06 10:53:42;;;;;;;0.90;0.90;;;;;;;8.67;29.30;99420.38;4402468;32;33317;-86
2023/04/06 10:56:14;;;;;;;0.95;0.95;;;;;;;9.13;28.73;99417.31;4401536;32;33298;-87
2023/04/06 10:58:46;;;;;;;1.12;1.12;;;;;;;9.10;30.07;99412.16;4408498;32;34101;-86
2023/04/06 11:01:16;;;;;;;1.15;1.15;;;;;;;9.31;29.29;99403.28;4402827;32;33399;-87
2023/04/06 11:03:49;;;;;;;1.80;1.70;;;;;;;9.08;30.51;99405.28;4410136;32;33009;-86
2023/04/06 11:06:22;;;;;;;0.80;0.80;;;;;;;9.38;29.32;99404.06;4408875;32;33769;-87
2023/04/06 11:08:51;;;;;;;1.30;1.20;;;;;;;9.87;27.74;99412.91;4405664;32;35291;-85
2023/04/06 11:11:26;;;;;;;1.05;1.05;;;;;;;9.65;28.37;99402.84;4413044;32;34831;-90
2023/04/06 11:13:56;;;;;;;0.90;0.90;;;;;;;9.94;28.89;99401.56;4409738;32;33138;-86
2023/04/06 11:16:26;;;;;;;1.00;1.00;;;;;;;10.13;28.34;99408.16;4409490;32;33241;-88
2023/04/06 11:18:56;;;;;;;0.90;0.90;;;;;;;9.85;28.42;99399.09;4405380;32;34514;-87
2023/04/06 11:21:35;;;;;;;1.00;1.00;;;;;;;10.23;27.96;99414.91;4409466;32;33688;-86
2023/04/06 11:24:11;;;;;;;1.33;1.00;;;;;;;10.02;27.47;99410.06;4411608;32;33778;-87
2023/04/06 11:26:48;;;;;;;1.95;1.85;;;;;;;10.11;28.34;99396.12;4412057;32;32394;-85
2023/04/06 11:29:18;;;;;;;0.98;0.98;;;;;;;9.84;29.82;99408.63;4407933;32;33481;-88
2023/04/06 11:31:48;;;;;;;1.50;1.40;;;;;;;9.37;31.26;99395.47;4410814;32;33617;-85
2023/04/06 11:34:18;;;;;;;1.37;1.27;;;;;;;9.31;31.63;99392.94;4407975;32;33450;-86
2023/04/06 11:36:49;;;;;;;1.40;1.30;;;;;;;9.35;31.53;99383.37;4414314;32;33475;-88
2023/04/06 11:39:20;;;;;;;1.17;1.17;;;;;;;9.34;31.98;99389.44;4408880;32;33368;-85
2023/04/06 11:41:53;;;;;;;1.02;1.02;;;;;;;9.60;31.52;99381.34;4409794;32;33359;-86
2023/04/06 11:44:30;;;;;;;1.12;1.10;;;;;;;9.46;30.95;99384.09;4407776;32;31811;-85
2023/04/06 11:47:00;;;;;;;1.00;1.00;;;;;;;9.52;30.76;99386.63;4413268;32;33707;-89
2023/04/06 11:49:29;;;;;;;0.90;0.90;;;;;;;9.61;30.48;99376.09;4404851;32;34446;-86
2023/04/06 11:51:59;;;;;;;1.27;1.20;;;;;;;9.63;29.82;99394.22;4406930;32;34336;-89
2023/04/06 11:54:32;;;;;;;1.65;1.17;;;;;;;9.73;29.28;99382.84;4408178;32;33759;-88